Time;durP1;ratioP1;P1;durP2;ratioP2;P2;SDS_P1;SDS_P2;PMS_P1;PMS_P2;Temp;Humidity;BMP_temperature;BMP_pressure;BME280_temperature;BME280_humidity;BME280_pressure;Samples;Min_cycle;Max_cycle;Signal;HPM_P1;HPM_P2
2023/08/29 00:01:54;;;;;;;;;4.67;2.00;;;;;16.46;60.78;101144.63;5081493;27;45475;-51
2023/08/29 00:04:19;;;;;;;;;2.33;2.00;;;;;16.50;61.21;101143.47;5067128;27;45871;-51
2023/08/29 00:06:44;;;;;;;;;3.33;3.00;;;;;16.54;61.09;101142.28;5087549;27;46126;-51
2023/08/29 00:09:10;;;;;;;;;2.33;2.00;;;;;16.56;60.96;101140.34;5081304;27;71811;-51
2023/08/29 00:11:35;;;;;;;;;2.00;2.00;;;;;16.57;60.83;101135.81;5091658;27;61442;-51
2023/08/29 00:14:00;;;;;;;;;4.67;1.67;;;;;16.55;60.79;101138.63;5084631;27;54079;-49
2023/08/29 00:16:26;;;;;;;;;3.00;3.00;;;;;16.53;60.40;101144.13;5087148;27;45296;-49
2023/08/29 00:18:51;;;;;;;;;3.00;3.00;;;;;16.53;60.18;101143.22;5091783;27;45234;-52
2023/08/29 00:21:17;;;;;;;;;2.00;2.00;;;;;16.50;61.02;101147.03;5090828;27;45348;-52
2023/08/29 00:23:42;;;;;;;;;3.33;3.33;;;;;16.47;61.31;101136.47;5069019;27;45649;-52
2023/08/29 00:26:07;;;;;;;;;2.00;1.00;;;;;16.46;61.14;101144.63;5082055;27;73238;-52
2023/08/29 00:28:33;;;;;;;;;2.00;2.00;;;;;16.46;61.60;101142.81;5081673;27;45839;-52
2023/08/29 00:30:58;;;;;;;;;3.00;2.00;;;;;16.45;61.13;101140.22;5084205;27;45345;-51
2023/08/29 00:33:23;;;;;;;;;3.33;3.33;;;;;16.45;61.20;101141.13;5066890;27;54300;-53
2023/08/29 00:35:49;;;;;;;;;4.00;3.33;;;;;16.44;61.22;101147.44;5088091;27;46026;-51
2023/08/29 00:38:14;;;;;;;;;3.00;3.00;;;;;16.44;61.44;101150.13;5084531;27;66850;-50
2023/08/29 00:40:39;;;;;;;;;2.33;2.00;;;;;16.48;61.79;101148.09;5093073;27;45785;-52
2023/08/29 00:43:05;;;;;;;;;1.00;1.00;;;;;16.50;61.55;101140.78;5084267;27;45460;-52
2023/08/29 00:45:32;;;;;;;;;3.00;3.00;;;;;16.48;61.21;101138.19;5081838;27;67817;-52
2023/08/29 00:47:57;;;;;;;;;2.00;2.00;;;;;16.49;61.65;101133.69;5084961;27;45515;-52
2023/08/29 00:50:24;;;;;;;;;2.67;2.67;;;;;16.49;61.70;101134.56;5083939;27;45533;-53
2023/08/29 00:52:50;;;;;;;;;2.67;2.00;;;;;16.50;61.42;101130.03;5077876;27;45518;-53
2023/08/29 00:55:15;;;;;;;;;3.00;1.67;;;;;16.49;61.71;101134.56;5077522;27;46463;-53
2023/08/29 00:57:40;;;;;;;;;3.67;3.67;;;;;16.47;61.77;101130.25;5095418;27;45347;-52
2023/08/29 01:00:06;;;;;;;;;3.67;2.33;;;;;16.48;61.54;101131.97;5086435;27;68792;-50
2023/08/29 01:02:32;;;;;;;;;5.00;4.00;;;;;16.46;61.95;101131.22;5085879;27;45360;-53
2023/08/29 01:04:57;;;;;;;;;4.00;3.00;;;;;16.42;61.83;101129.72;5068649;27;58262;-51
2023/08/29 01:07:23;;;;;;;;;3.00;3.00;;;;;16.40;61.87;101121.78;5089600;27;45517;-49
2023/08/29 01:09:48;;;;;;;;;4.00;3.67;;;;;16.36;62.16;101123.81;5085487;27;66509;-53
2023/08/29 01:12:19;;;;;;;;;4.00;3.00;;;;;16.34;62.20;101119.50;5075127;27;67136;-53
2023/08/29 01:14:54;;;;;;;;;1.67;1.00;;;;;16.32;62.39;101127.69;5087265;27;46698;-53
2023/08/29 01:17:31;;;;;;;;;3.00;3.00;;;;;16.31;62.33;101128.63;5086239;27;45552;-49
2023/08/29 01:19:56;;;;;;;;;6.00;3.33;;;;;16.33;62.04;101128.53;5075051;27;45509;-50
2023/08/29 01:22:45;;;;;;;;;5.00;3.67;;;;;16.34;62.59;101127.56;5069768;27;54624;-53
2023/08/29 01:25:33;;;;;;;;;6.00;4.67;;;;;16.34;62.51;101124.88;5089828;27;46405;-54
2023/08/29 01:27:59;;;;;;;;;3.33;3.33;;;;;16.33;62.80;101120.47;5087590;27;45327;-53
2023/08/29 01:30:25;;;;;;;;;3.33;3.33;;;;;16.31;62.73;101117.91;5085817;27;45449;-51
2023/08/29 01:32:51;;;;;;;;;3.00;3.00;;;;;16.29;62.85;101122.50;5069240;28;45586;-54
2023/08/29 01:35:16;;;;;;;;;3.67;2.67;;;;;16.24;62.77;101118.44;5074464;27;47138;-53
2023/08/29 01:37:42;;;;;;;;;3.33;3.33;;;;;16.20;62.73;101120.47;5085455;27;45484;-51
2023/08/29 01:40:08;;;;;;;;;3.67;3.67;;;;;16.15;62.79;101123.47;5071823;27;45491;-53
2023/08/29 01:42:33;;;;;;;;;3.33;3.33;;;;;16.12;63.63;101117.44;5094115;27;45597;-50
2023/08/29 01:44:58;;;;;;;;;2.00;2.00;;;;;16.10;64.01;101116.69;5086688;27;76133;-53
2023/08/29 01:47:24;;;;;;;;;5.33;3.33;;;;;16.09;63.85;101112.28;5084227;27;67826;-50
2023/08/29 01:49:50;;;;;;;;;3.00;3.00;;;;;16.09;63.78;101121.19;5089627;27;67613;-53
2023/08/29 01:52:16;;;;;;;;;2.33;2.33;;;;;16.10;64.16;101124.72;5093715;27;45453;-53
2023/08/29 01:54:41;;;;;;;;;3.33;2.00;;;;;16.09;64.24;101115.84;5087785;27;54476;-51
2023/08/29 01:57:09;;;;;;;;;4.67;3.33;;;;;16.04;64.59;101116.13;5089044;27;45534;-53
2023/08/29 01:59:34;;;;;;;;;4.00;4.00;;;;;16.01;64.02;101113.66;5088979;27;45522;-53
2023/08/29 02:02:01;;;;;;;;;4.33;4.33;;;;;15.96;64.59;101126.53;5073354;27;65340;-53
2023/08/29 02:04:27;;;;;;;;;3.00;3.00;;;;;15.93;64.53;101125.88;5082895;27;46959;-53
2023/08/29 02:06:53;;;;;;;;;6.00;3.50;;;;;15.86;64.64;101125.44;5087850;27;45411;-54
2023/08/29 02:09:19;;;;;;;;;3.00;3.00;;;;;15.82;65.08;101122.09;5089591;27;45377;-51
2023/08/29 02:11:44;;;;;;;;;5.33;4.33;;;;;15.76;65.52;101117.13;5092118;27;45466;-52
2023/08/29 02:14:11;;;;;;;;;5.00;3.00;;;;;15.73;65.11;101125.34;5096953;27;69966;-51
2023/08/29 02:16:36;;;;;;;;;6.00;4.00;;;;;15.67;65.31;101120.41;5085997;27;45775;-53
2023/08/29 02:19:02;;;;;;;;;3.00;3.00;;;;;15.64;65.63;101116.09;5091225;27;45480;-53
2023/08/29 02:21:28;;;;;;;;;4.33;4.00;;;;;15.62;65.46;101119.84;5075028;27;45637;-52
2023/08/29 02:23:53;;;;;;;;;6.33;4.67;;;;;15.60;65.74;101128.00;5082031;27;45500;-50
2023/08/29 02:26:18;;;;;;;;;7.00;4.67;;;;;15.56;66.11;101129.16;5090049;27;45303;-53
2023/08/29 02:28:44;;;;;;;;;3.33;3.33;;;;;15.53;66.54;101132.91;5094816;27;67941;-53
2023/08/29 02:31:09;;;;;;;;;4.00;3.33;;;;;15.51;66.61;101140.19;5097928;27;55966;-50
2023/08/29 02:33:37;;;;;;;;;4.67;4.67;;;;;15.50;66.12;101138.47;5079677;27;56714;-53
2023/08/29 02:36:04;;;;;;;;;3.67;3.67;;;;;15.46;66.58;101128.91;5087167;27;45600;-53
2023/08/29 02:38:30;;;;;;;;;4.33;3.67;;;;;15.46;67.43;101125.38;5088240;27;45486;-52
2023/08/29 02:40:55;;;;;;;;;5.00;5.00;;;;;15.46;66.92;101136.97;5085164;27;45728;-50
2023/08/29 02:43:20;;;;;;;;;5.00;5.00;;;;;15.46;67.30;101136.97;5075135;27;66987;-53
2023/08/29 02:45:46;;;;;;;;;4.00;4.00;;;;;15.49;67.71;101136.75;5082611;27;45501;-52
2023/08/29 02:48:11;;;;;;;;;4.00;4.00;;;;;15.54;68.21;101133.78;5088402;27;45502;-53
2023/08/29 02:50:37;;;;;;;;;4.00;4.00;;;;;15.59;68.22;101128.09;5090159;27;68762;-52
2023/08/29 02:53:02;;;;;;;;;4.33;4.33;;;;;15.63;68.18;101130.50;5084157;27;46195;-53
2023/08/29 02:55:28;;;;;;;;;3.00;3.00;;;;;15.68;67.52;101124.81;5059799;27;45751;-53
2023/08/29 02:57:53;;;;;;;;;4.33;4.00;;;;;15.73;67.81;101125.34;5092916;27;45497;-53
2023/08/29 03:00:19;;;;;;;;;5.67;5.67;;;;;15.77;67.63;101121.50;5086607;27;63525;-53
2023/08/29 03:02:44;;;;;;;;;4.67;4.67;;;;;15.80;67.34;101117.75;5091146;27;73603;-53
2023/08/29 03:05:09;;;;;;;;;4.00;4.00;;;;;15.80;67.42;101126.69;5086734;27;65428;-53
2023/08/29 03:07:35;;;;;;;;;7.00;4.33;;;;;15.82;67.80;101119.41;5090936;27;45754;-51
2023/08/29 03:10:00;;;;;;;;;6.33;6.33;;;;;15.84;67.36;101122.88;5087219;27;67771;-52
2023/08/29 03:12:25;;;;;;;;;5.33;5.33;;;;;15.86;67.94;101123.59;5087742;27;66913;-53
2023/08/29 03:14:54;;;;;;;;;9.67;6.67;;;;;15.88;67.57;101113.63;5085123;27;45536;-52
2023/08/29 03:17:19;;;;;;;;;7.00;7.00;;;;;15.94;67.55;101119.56;5088143;27;63304;-50
2023/08/29 03:19:46;;;;;;;;;11.00;7.00;;;;;15.98;67.95;101116.56;5090068;27;45379;-53
2023/08/29 03:22:12;;;;;;;;;10.33;6.33;;;;;16.00;67.44;101111.94;5089586;27;45586;-50
2023/08/29 03:24:37;;;;;;;;;8.00;8.00;;;;;16.01;67.55;101110.16;5083158;27;68642;-53
2023/08/29 03:27:02;;;;;;;;;5.00;4.33;;;;;16.00;67.41;101109.25;5091403;27;63482;-53
2023/08/29 03:29:28;;;;;;;;;7.00;7.00;;;;;16.00;67.90;101100.38;5086219;27;45469;-54
2023/08/29 03:31:53;;;;;;;;;5.33;5.33;;;;;16.00;67.90;101103.91;5087804;27;46961;-54
2023/08/29 03:34:20;;;;;;;;;1.00;0.00;;;;;16.01;67.56;101108.31;5088141;27;45544;-53
2023/08/29 03:36:45;;;;;;;;;9.00;6.67;;;;;16.01;68.00;101107.47;5083468;27;52616;-52
2023/08/29 03:39:10;;;;;;;;;6.00;5.00;;;;;16.00;67.67;101105.72;5082622;27;65048;-51
2023/08/29 03:41:37;;;;;;;;;5.33;5.33;;;;;15.97;67.79;101105.91;5059982;27;48012;-49
2023/08/29 03:44:03;;;;;;;;;4.00;4.00;;;;;15.94;68.04;101109.66;5085962;27;45500;-53
2023/08/29 03:46:28;;;;;;;;;5.67;5.67;;;;;15.91;68.10;101101.84;5080603;27;46801;-50
2023/08/29 03:48:53;;;;;;;;;5.00;5.00;;;;;15.90;68.19;101101.97;5088491;27;65216;-49
2023/08/29 03:51:19;;;;;;;;;4.67;4.00;;;;;15.87;68.27;101103.03;5080275;27;74316;-49
2023/08/29 03:53:44;;;;;;;;;5.33;5.00;;;;;15.85;68.37;101099.56;5089582;27;45412;-52
2023/08/29 03:56:09;;;;;;;;;4.33;4.33;;;;;15.84;68.87;101096.03;5088416;27;65709;-52
2023/08/29 03:58:35;;;;;;;;;4.00;4.00;;;;;15.83;69.35;101101.50;5087938;27;56736;-52
2023/08/29 04:01:03;;;;;;;;;5.67;4.00;;;;;15.80;69.12;101096.31;5073040;27;47052;-52
2023/08/29 04:03:28;;;;;;;;;7.33;5.33;;;;;15.79;69.15;101095.47;5087280;27;45354;-53
2023/08/29 04:05:54;;;;;;;;;4.00;3.00;;;;;15.76;68.77;101094.78;5088720;27;59214;-53
2023/08/29 04:08:19;;;;;;;;;5.00;5.00;;;;;15.73;69.30;101095.00;5081731;27;68175;-53
2023/08/29 04:10:45;;;;;;;;;4.67;4.00;;;;;15.69;69.28;101091.66;5084595;27;75545;-52
2023/08/29 04:13:10;;;;;;;;;5.33;5.33;;;;;15.65;68.85;101099.06;5089894;27;72383;-53
2023/08/29 04:15:36;;;;;;;;;5.00;5.00;;;;;15.60;69.12;101093.13;5088644;27;66384;-51
2023/08/29 04:18:03;;;;;;;;;6.33;6.33;;;;;15.57;69.01;101090.66;5092086;27;45575;-50
2023/08/29 04:20:29;;;;;;;;;5.00;5.00;;;;;15.52;69.60;101092.81;5073849;27;46543;-52
2023/08/29 04:22:55;;;;;;;;;7.00;5.67;;;;;15.47;69.79;101089.56;5082675;27;45561;-50
2023/08/29 04:25:21;;;;;;;;;8.00;6.00;;;;;15.45;70.12;101097.72;5094816;27;45402;-54
2023/08/29 04:27:48;;;;;;;;;5.00;5.00;;;;;15.42;70.06;101089.84;5100587;27;45594;-52
2023/08/29 04:30:13;;;;;;;;;7.00;7.00;;;;;15.38;69.91;101081.19;5087097;27;46117;-52
2023/08/29 04:32:38;;;;;;;;;5.67;4.67;;;;;15.34;70.50;101089.50;5091803;27;45863;-53
2023/08/29 04:35:06;;;;;;;;;5.67;4.00;;;;;15.30;70.41;101091.53;5088646;27;45414;-48
2023/08/29 04:37:34;;;;;;;;;8.00;6.33;;;;;15.27;70.85;101086.38;5067041;27;45659;-50
2023/08/29 04:40:00;;;;;;;;;2.67;1.67;;;;;15.23;70.57;101090.22;5069953;27;46215;-52
2023/08/29 04:42:26;;;;;;;;;9.00;6.67;;;;;15.18;70.47;101085.16;5073177;28;45354;-50
2023/08/29 04:44:53;;;;;;;;;5.67;5.67;;;;;15.14;71.65;101088.13;5096407;27;45485;-51
2023/08/29 04:47:19;;;;;;;;;8.00;6.67;;;;;15.09;71.59;101077.72;5090929;27;45528;-51
2023/08/29 04:49:44;;;;;;;;;8.67;7.00;;;;;15.08;71.39;101083.16;5084921;27;45423;-54
2023/08/29 04:52:10;;;;;;;;;6.00;6.00;;;;;15.05;70.58;101084.22;5094663;27;67623;-53
2023/08/29 04:54:35;;;;;;;;;4.33;3.00;;;;;15.02;71.31;101079.91;5085467;27;45858;-53
2023/08/29 04:57:00;;;;;;;;;7.00;7.00;;;;;15.00;71.83;101083.66;5081976;27;66007;-54
2023/08/29 04:59:26;;;;;;;;;3.00;3.00;;;;;14.97;72.18;101090.06;5081049;27;74895;-51
2023/08/29 05:01:51;;;;;;;;;7.33;6.00;;;;;14.97;71.93;101086.53;5089864;27;70763;-52
2023/08/29 05:04:16;;;;;;;;;11.67;7.67;;;;;14.96;71.52;101084.81;5089828;27;45513;-50
2023/08/29 05:06:42;;;;;;;;;8.00;6.67;;;;;14.93;71.99;101083.19;5072982;27;46944;-50
2023/08/29 05:09:08;;;;;;;;;8.67;8.00;;;;;14.91;72.39;101090.47;5082300;27;71999;-52
2023/08/29 05:11:34;;;;;;;;;9.00;7.67;;;;;14.89;73.05;101089.72;5080477;27;45948;-52
2023/08/29 05:13:59;;;;;;;;;7.00;5.67;;;;;14.88;72.98;101077.28;5091964;27;45479;-50
2023/08/29 05:16:25;;;;;;;;;8.33;8.33;;;;;14.87;73.37;101081.78;5097176;27;66873;-50
2023/08/29 05:18:50;;;;;;;;;9.33;6.67;;;;;14.84;73.55;101081.94;5087508;27;52807;-53
2023/08/29 05:21:15;;;;;;;;;6.00;5.00;;;;;14.83;73.17;101077.56;5090786;27;45434;-50
2023/08/29 05:23:40;;;;;;;;;6.33;6.33;;;;;14.82;73.13;101081.22;5084894;27;64804;-50
2023/08/29 05:26:06;;;;;;;;;5.00;5.00;;;;;14.82;72.96;101083.00;5079950;27;67403;-52
2023/08/29 05:28:31;;;;;;;;;8.67;8.00;;;;;14.81;72.51;101090.19;5089694;27;46066;-53
2023/08/29 05:30:57;;;;;;;;;8.33;7.00;;;;;14.82;72.70;101091.03;5088321;27;50234;-51
2023/08/29 05:33:22;;;;;;;;;9.33;8.00;;;;;14.80;73.36;101083.13;5087261;27;45598;-50
2023/08/29 05:35:47;;;;;;;;;5.00;5.00;;;;;14.83;73.65;101090.09;5082476;27;67747;-51
2023/08/29 05:38:12;;;;;;;;;8.00;6.00;;;;;14.88;74.19;101087.97;5095196;27;73098;-52
2023/08/29 05:40:38;;;;;;;;;8.33;7.67;;;;;14.94;73.27;101094.75;5090170;27;71533;-53
2023/08/29 05:43:03;;;;;;;;;12.33;9.00;;;;;14.98;73.50;101090.91;5082190;27;62071;-51
2023/08/29 05:45:30;;;;;;;;;10.33;6.67;;;;;15.02;73.48;101087.97;5092479;27;45523;-52
2023/08/29 05:47:55;;;;;;;;;8.67;8.00;;;;;15.09;73.24;101092.94;5090185;27;45806;-54
2023/08/29 05:50:20;;;;;;;;;10.00;9.00;;;;;15.13;73.68;101089.94;5078250;27;71560;-54
2023/08/29 05:52:46;;;;;;;;;10.33;8.67;;;;;15.19;73.20;101088.69;5094875;27;45346;-52
2023/08/29 05:55:11;;;;;;;;;8.00;6.33;;;;;15.26;73.22;101094.50;5091467;27;60099;-54
2023/08/29 05:57:36;;;;;;;;;7.00;7.00;;;;;15.32;73.34;101089.59;5085350;27;69230;-53
2023/08/29 06:00:05;;;;;;;;;7.00;7.00;;;;;15.38;72.63;101089.22;5086308;27;55821;-53
2023/08/29 06:02:32;;;;;;;;;9.67;7.00;;;;;15.46;72.30;101079.78;5089008;27;45445;-51
2023/08/29 06:04:58;;;;;;;;;9.67;8.00;;;;;15.51;72.33;101083.03;5071784;27;45437;-51
2023/08/29 06:07:23;;;;;;;;;9.00;9.00;;;;;15.55;72.19;101085.41;5090699;27;46064;-53
2023/08/29 06:09:48;;;;;;;;;7.00;5.00;;;;;15.60;72.07;101082.41;5092374;27;57643;-51
2023/08/29 06:12:14;;;;;;;;;12.33;9.67;;;;;15.64;72.17;101078.56;5091423;27;64646;-51
2023/08/29 06:14:39;;;;;;;;;8.67;8.00;;;;;15.70;71.92;101086.19;5090566;27;68573;-54
2023/08/29 06:17:05;;;;;;;;;10.00;8.00;;;;;15.74;71.61;101083.34;5085117;27;47995;-53
2023/08/29 06:19:30;;;;;;;;;8.67;8.67;;;;;15.79;71.72;101084.72;5089683;27;45997;-53
2023/08/29 06:21:55;;;;;;;;;11.00;8.67;;;;;15.83;71.63;101086.28;5089830;27;45761;-54
2023/08/29 06:24:21;;;;;;;;;14.67;13.00;;;;;15.90;71.57;101089.38;5078599;27;69677;-52
2023/08/29 06:26:46;;;;;;;;;8.00;8.00;;;;;15.97;71.38;101084.47;5082769;27;51110;-51
2023/08/29 06:29:11;;;;;;;;;7.67;7.67;;;;;16.00;71.29;101079.75;5088412;27;60975;-58
2023/08/29 06:31:37;;;;;;;;;9.67;8.00;;;;;16.04;71.61;101089.31;5086102;27;55579;-58
2023/08/29 06:34:02;;;;;;;;;9.67;8.00;;;;;17.69;72.14;101087.41;5067727;27;67520;-57
2023/08/29 06:36:27;;;;;;;;;12.00;10.33;;;;;20.66;67.23;101082.22;5095496;27;64635;-57
2023/08/29 06:38:53;;;;;;;;;9.67;8.67;;;;;23.55;59.32;101081.34;5092642;27;45686;-58
2023/08/29 06:41:18;;;;;;;;;9.33;9.00;;;;;26.03;55.71;101093.41;5086709;27;45678;-57
2023/08/29 06:43:46;;;;;;;;;8.00;7.67;;;;;28.10;51.41;101086.00;5082676;27;64148;-60
2023/08/29 06:46:11;;;;;;;;;8.00;8.00;;;;;29.81;45.96;101093.22;5091512;27;47044;-57
2023/08/29 06:48:37;;;;;;;;;11.00;9.00;;;;;31.24;43.25;101086.53;5085771;27;45403;-57
2023/08/29 06:51:02;;;;;;;;;12.00;10.00;;;;;32.42;37.73;101080.50;5092306;27;47683;-57
2023/08/29 06:53:28;;;;;;;;;10.00;9.33;;;;;33.17;37.38;101076.44;5091369;27;50088;-58
2023/08/29 06:55:54;;;;;;;;;12.00;12.00;;;;;33.90;35.50;101086.16;5044597;27;45711;-58
2023/08/29 06:58:19;;;;;;;;;9.67;8.67;;;;;34.57;33.56;101084.69;5086169;27;45358;-58
2023/08/29 07:00:45;;;;;;;;;10.33;10.33;;;;;35.19;32.11;101081.78;5060086;27;45567;-58
2023/08/29 07:03:10;;;;;;;;;11.00;10.33;;;;;35.89;31.24;101079.47;5093246;27;51483;-59
2023/08/29 07:05:35;;;;;;;;;7.25;7.25;;;;;36.46;31.98;101087.19;5084928;27;45492;-58
2023/08/29 07:08:01;;;;;;;;;6.25;4.00;;;;;36.92;30.80;101090.13;5097566;27;45548;-54
2023/08/29 07:10:26;;;;;;;;;10.00;9.00;;;;;37.59;28.94;101091.41;5082538;27;45473;-52
2023/08/29 07:12:52;;;;;;;;;10.00;9.25;;;;;38.29;27.31;101091.16;5090771;27;50844;-51
2023/08/29 07:15:18;;;;;;;;;9.33;8.33;;;;;38.88;26.38;101098.94;5082632;27;72365;-52
2023/08/29 07:17:43;;;;;;;;;7.50;7.50;;;;;39.43;26.34;101099.81;5094584;27;45680;-53
2023/08/29 07:20:09;;;;;;;;;9.75;8.25;;;;;39.99;25.46;101098.63;5087863;27;65881;-53
2023/08/29 07:22:38;;;;;;;;;7.00;7.00;;;;;40.51;24.74;101092.28;5081785;27;45508;-52
2023/08/29 07:25:04;;;;;;;;;10.00;8.50;;;;;40.83;24.12;101101.63;5081123;27;47290;-54
2023/08/29 07:27:32;;;;;;;;;10.00;7.00;;;;;41.22;23.80;101092.84;5059554;27;45399;-50
2023/08/29 07:29:57;;;;;;;;;8.75;8.50;;;;;41.76;23.63;101096.25;5091200;27;45549;-52
2023/08/29 07:32:23;;;;;;;;;13.00;11.25;;;;;42.23;21.80;101091.44;5089186;27;45416;-54
2023/08/29 07:34:50;;;;;;;;;8.50;8.50;;;;;42.56;21.25;101084.41;5086220;27;45406;-53
2023/08/29 07:37:15;;;;;;;;;7.75;7.75;;;;;43.03;22.16;101089.78;5066609;27;45424;-53
2023/08/29 07:39:40;;;;;;;;;9.75;8.00;;;;;43.38;21.27;101090.69;5098341;27;56992;-54
2023/08/29 07:42:05;;;;;;;;;7.25;7.25;;;;;43.77;20.23;101089.84;5069768;27;50222;-54
2023/08/29 07:44:31;;;;;;;;;10.50;8.00;;;;;44.07;21.26;101090.69;5090449;27;70068;-52
2023/08/29 07:46:57;;;;;;;;;8.75;8.00;;;;;44.01;20.05;101100.28;5090659;27;55907;-54
2023/08/29 07:49:22;;;;;;;;;6.25;6.00;;;;;44.20;21.00;101097.53;5081257;27;45458;-51
2023/08/29 07:51:51;;;;;;;;;10.00;7.75;;;;;44.45;19.49;101090.84;5081194;27;50151;-52
2023/08/29 07:54:16;;;;;;;;;7.00;6.75;;;;;44.73;19.66;101088.25;5082315;27;46013;-52
2023/08/29 07:56:42;;;;;;;;;6.25;6.25;;;;;45.07;19.22;101092.81;5091024;27;45489;-53
2023/08/29 07:59:07;;;;;;;;;8.75;6.75;;;;;45.34;18.49;101088.50;5063972;28;51732;-53
2023/08/29 08:01:32;;;;;;;;;5.75;5.75;;;;;45.22;18.40;101083.38;5094616;27;66816;-54
2023/08/29 08:03:58;;;;;;;;;9.25;7.75;;;;;43.70;18.56;101089.31;5089438;27;66852;-53
2023/08/29 08:06:23;;;;;;;;;8.50;6.50;;;;;40.72;20.29;101078.47;5097416;27;70226;-52
2023/08/29 08:08:48;;;;;;;;;7.25;6.25;;;;;37.68;23.35;101084.34;5102796;27;45337;-52
2023/08/29 08:11:14;;;;;;;;;9.25;8.00;;;;;35.04;24.89;101087.72;5083893;27;45405;-53
2023/08/29 08:13:39;;;;;;;;;6.00;6.00;;;;;32.76;26.99;101086.81;5067215;28;73212;-54
2023/08/29 08:16:04;;;;;;;;;9.50;6.50;;;;;31.11;28.71;101090.97;5088893;27;71185;-52
2023/08/29 08:18:30;;;;;;;;;5.00;5.00;;;;;29.81;31.25;101094.06;5086351;27;45280;-51
2023/08/29 08:20:55;;;;;;;;;8.75;7.75;;;;;28.72;32.46;101081.25;5098297;27;64746;-51
2023/08/29 08:23:20;;;;;;;;;8.75;7.50;;;;;27.74;33.95;101086.63;5093735;27;73524;-49
2023/08/29 08:25:46;;;;;;;;;8.00;7.25;;;;;26.95;34.83;101078.56;5076300;27;45509;-51
2023/08/29 08:28:13;;;;;;;;;13.00;7.00;;;;;26.28;36.33;101082.50;5098985;27;65645;-52
2023/08/29 08:30:38;;;;;;;;;8.75;7.00;;;;;25.64;36.97;101077.75;5098788;27;45578;-51
2023/08/29 08:33:05;;;;;;;;;8.00;6.50;;;;;25.05;38.37;101074.03;5099122;27;45812;-51
2023/08/29 08:35:30;;;;;;;;;7.75;6.00;;;;;24.63;38.56;101074.00;5085892;27;45873;-52
2023/08/29 08:37:56;;;;;;;;;8.00;7.00;;;;;24.28;38.87;101076.72;5067816;27;45366;-53
2023/08/29 08:40:21;;;;;;;;;8.75;7.00;;;;;23.94;39.72;101083.75;5084308;27;45446;-51
2023/08/29 08:42:47;;;;;;;;;6.50;6.00;;;;;23.86;40.94;101086.41;5085747;27;46073;-50
2023/08/29 08:45:13;;;;;;;;;7.50;6.25;;;;;23.83;41.11;101072.25;5098258;27;45326;-52
2023/08/29 08:47:39;;;;;;;;;6.50;5.25;;;;;23.80;42.03;101070.72;5080100;27;45378;-52
2023/08/29 08:50:08;;;;;;;;;5.00;5.00;;;;;23.82;41.73;101074.13;5065862;28;45330;-53
2023/08/29 08:52:34;;;;;;;;;4.00;4.00;;;;;23.88;42.37;101072.66;5085148;27;46072;-50
2023/08/29 08:54:59;;;;;;;;;6.33;6.33;;;;;23.89;42.79;101069.78;5091277;27;45376;-49
2023/08/29 08:57:25;;;;;;;;;3.00;3.00;;;;;23.99;42.54;101068.84;5076629;27;45405;-48
2023/08/29 08:59:50;;;;;;;;;6.75;4.75;;;;;25.88;42.44;101074.19;5090227;27;45368;-49
2023/08/29 09:02:17;;;;;;;;;5.00;5.00;;;;;29.33;38.69;101066.41;5101428;27;45750;-52
2023/08/29 09:04:43;;;;;;;;;1.00;0.00;;;;;31.70;34.26;101061.09;5083156;27;45350;-49
2023/08/29 09:07:08;;;;;;;;;3.00;3.00;;;;;33.01;33.22;101057.66;5097786;27;45262;-50
2023/08/29 09:09:33;;;;;;;;;3.50;2.75;;;;;34.54;31.42;101071.34;5088309;27;68401;-52
2023/08/29 09:11:59;;;;;;;;;2.00;2.00;;;;;34.84;28.93;101065.91;5098468;27;45529;-53
2023/08/29 09:14:25;;;;;;;;;2.00;2.00;;;;;33.43;28.99;101058.91;5089671;27;45372;-50
2023/08/29 09:16:55;;;;;;;;;2.75;2.75;;;;;31.96;30.46;101065.72;5098963;27;46378;-50
2023/08/29 09:19:22;;;;;;;;;6.00;3.00;;;;;32.72;31.09;101058.00;5098427;27;45951;-51
2023/08/29 09:21:48;;;;;;;;;4.75;3.50;;;;;33.34;30.34;101049.25;5078338;27;46262;-50
2023/08/29 09:24:13;;;;;;;;;2.00;1.50;;;;;35.41;28.89;101048.97;5101400;27;45698;-51
2023/08/29 09:26:40;;;;;;;;;2.50;2.50;;;;;37.57;25.87;101049.22;5097528;27;67712;-52
2023/08/29 09:29:17;;;;;;;;;3.75;2.75;;;;;38.80;21.84;101047.44;5094225;27;45331;-49
2023/08/29 09:31:42;;;;;;;;;1.25;1.25;;;;;39.60;22.87;101049.59;5090376;27;46043;-52
2023/08/29 09:34:08;;;;;;;;;1.25;0.50;;;;;40.39;22.53;101044.31;5083911;27;55737;-52
2023/08/29 09:36:33;;;;;;;;;6.50;5.00;;;;;41.54;22.66;101043.50;5088482;27;45430;-52
2023/08/29 09:38:58;;;;;;;;;4.75;3.00;;;;;42.41;21.88;101050.91;5073126;28;64453;-54
2023/08/29 09:41:24;;;;;;;;;2.00;1.00;;;;;42.91;20.55;101054.63;5092953;27;68841;-52
2023/08/29 09:43:49;;;;;;;;;3.25;1.75;;;;;43.19;20.60;101051.38;5099065;27;45468;-53
2023/08/29 09:46:22;;;;;;;;;1.25;1.25;;;;;43.51;19.03;101056.47;5085880;27;45423;-52
2023/08/29 09:48:55;;;;;;;;;2.50;2.00;;;;;43.84;19.86;101051.09;5082201;27;45371;-52
2023/08/29 09:51:22;;;;;;;;;1.75;1.00;;;;;43.99;20.21;101038.94;5088255;27;47162;-53
2023/08/29 09:53:48;;;;;;;;;3.00;1.75;;;;;44.45;19.77;101043.19;5089535;27;45511;-52
2023/08/29 09:56:14;;;;;;;;;1.50;1.00;;;;;44.19;18.40;101040.66;5073012;28;45457;-51
2023/08/29 09:58:40;;;;;;;;;0.50;0.50;;;;;42.05;19.68;101040.69;5075774;27;63931;-53
2023/08/29 10:01:08;;;;;;;;;3.50;2.00;;;;;40.59;20.58;101049.16;5064254;28;46292;-54
2023/08/29 10:03:34;;;;;;;;;1.50;1.00;;;;;40.71;20.81;101043.34;5083081;27;45542;-53
2023/08/29 10:06:05;;;;;;;;;2.75;2.00;;;;;39.76;20.91;101035.84;5080599;27;45538;-54
2023/08/29 10:08:36;;;;;;;;;1.00;1.00;;;;;37.78;21.85;101035.66;5086669;27;45632;-54
2023/08/29 10:11:02;;;;;;;;;1.00;1.00;;;;;37.35;23.72;101029.69;5068754;27;46223;-53
2023/08/29 10:13:28;;;;;;;;;2.00;2.00;;;;;38.60;23.06;101042.41;5074793;27;45355;-51
2023/08/29 10:15:54;;;;;;;;;1.00;1.00;;;;;38.32;22.31;101030.41;5100619;27;45443;-53
2023/08/29 10:18:20;;;;;;;;;2.50;2.50;;;;;37.34;22.35;101019.69;5099274;27;56191;-52
2023/08/29 10:20:46;;;;;;;;;1.50;1.50;;;;;36.27;23.49;101022.81;5091084;27;45576;-53
2023/08/29 10:23:15;;;;;;;;;1.75;1.75;;;;;35.07;23.74;101026.50;5073562;27;45401;-52
2023/08/29 10:25:41;;;;;;;;;1.00;1.00;;;;;33.92;25.13;101028.88;5097262;27;45310;-53
2023/08/29 10:28:10;;;;;;;;;2.50;1.00;;;;;32.93;25.67;101022.97;5089802;27;45435;-53
2023/08/29 10:30:38;;;;;;;;;2.50;1.25;;;;;31.91;27.10;101020.69;5070851;27;46188;-52
2023/08/29 10:33:04;;;;;;;;;3.50;1.50;;;;;30.95;28.19;101025.38;5078931;27;45401;-53
2023/08/29 10:35:31;;;;;;;;;2.25;2.25;;;;;29.98;29.20;101023.38;5071483;27;45398;-51
2023/08/29 10:38:00;;;;;;;;;3.75;3.75;;;;;28.98;30.68;101030.63;5094389;27;45537;-52
2023/08/29 10:40:33;;;;;;;;;1.75;1.75;;;;;28.06;32.30;101032.75;5091913;27;45842;-53
2023/08/29 10:43:00;;;;;;;;;2.75;2.75;;;;;27.26;33.10;101021.25;5087092;27;45568;-53
2023/08/29 10:46:00;;;;;;;;;5.00;3.50;;;;;26.40;34.47;101026.59;5082439;27;45413;-53
2023/08/29 10:48:29;;;;;;;;;3.75;1.50;;;;;25.74;35.33;101026.69;5037023;27;45482;-54
2023/08/29 10:51:10;;;;;;;;;3.25;3.25;;;;;25.16;36.67;101025.75;5076899;28;46978;-52
2023/08/29 10:53:46;;;;;;;;;3.50;3.50;;;;;24.73;37.13;101020.38;5064454;27;45534;-51
2023/08/29 10:56:13;;;;;;;;;5.25;2.25;;;;;24.38;38.34;101019.50;5086588;27;45373;-52
2023/08/29 10:58:45;;;;;;;;;2.75;2.75;;;;;24.11;38.21;101021.41;5059588;27;45421;-53
2023/08/29 11:01:33;;;;;;;;;3.50;3.50;;;;;23.90;39.18;101019.91;5070230;28;45529;-51
2023/08/29 11:04:16;;;;;;;;;6.75;5.00;;;;;23.74;39.80;101020.63;5088578;27;46608;-53
2023/08/29 11:06:53;;;;;;;;;3.25;3.25;;;;;23.64;39.67;101017.13;5069547;27;45663;-51
2023/08/29 11:09:23;;;;;;;;;6.75;3.00;;;;;23.59;40.22;101020.31;5079532;27;45702;-52
2023/08/29 11:12:23;;;;;;;;;3.50;3.00;;;;;23.54;39.71;101024.53;5086839;27;46099;-53
2023/08/29 11:14:56;;;;;;;;;4.00;3.00;;;;;23.48;40.75;101014.28;5010874;28;51027;-52
2023/08/29 11:17:23;;;;;;;;;3.75;3.75;;;;;23.42;40.12;101010.34;5078894;27;45451;-52
2023/08/29 11:20:06;;;;;;;;;4.00;4.00;;;;;23.42;41.11;101026.63;5066936;28;46405;-53
2023/08/29 11:22:32;;;;;;;;;5.00;3.75;;;;;23.44;40.86;101005.59;5076328;27;47410;-51